createdAt,value
2022-09-21T00:01:59.384Z,16.63
2022-09-21T00:07:00.916Z,16.46
2022-09-21T00:12:02.929Z,16.66
2022-09-21T00:17:04.450Z,16.43
2022-09-21T00:22:07.351Z,16.38
2022-09-21T00:27:08.821Z,16.25
2022-09-21T00:32:10.460Z,16.34
2022-09-21T00:37:11.938Z,16.19
2022-09-21T00:42:18.171Z,16.18
2022-09-21T00:47:34.106Z,16.25
2022-09-21T00:52:38.128Z,16.40
2022-09-21T00:57:39.606Z,16.53
2022-09-21T01:02:41.085Z,16.48
2022-09-21T01:07:44.930Z,16.39
2022-09-21T01:13:09.752Z,16.45
2022-09-21T01:18:32.595Z,16.38
2022-09-21T01:23:55.557Z,16.51
2022-09-21T01:29:20.182Z,16.39
2022-09-21T01:34:54.635Z,16.39
2022-09-21T01:39:58.119Z,16.26
2022-09-21T01:45:00.961Z,16.12
2022-09-21T01:50:02.774Z,15.90
2022-09-21T01:55:28.206Z,16.05
2022-09-21T02:00:30.344Z,15.54
2022-09-21T02:05:31.913Z,15.97
2022-09-21T02:10:50.306Z,16.01
2022-09-21T02:15:55.840Z,16.00
2022-09-21T02:20:57.859Z,16.13
2022-09-21T02:26:08.121Z,16.11
2022-09-21T02:31:24.728Z,15.95
2022-09-21T02:36:37.166Z,15.80
2022-09-21T02:41:46.461Z,15.98
2022-09-21T02:46:59.251Z,15.98
2022-09-21T02:52:03.479Z,16.13
2022-09-21T02:57:04.957Z,16.14
2022-09-21T03:02:07.057Z,15.89
2022-09-21T03:07:09.018Z,16.02
2022-09-21T03:12:10.479Z,15.93
2022-09-21T03:17:12.160Z,16.05
2022-09-21T03:22:13.668Z,16.01
2022-09-21T03:27:16.550Z,16.10
2022-09-21T03:32:18.035Z,15.94
2022-09-21T03:37:19.514Z,16.01
2022-09-21T03:42:20.987Z,15.60
2022-09-21T03:47:22.482Z,15.70
2022-09-21T03:52:23.983Z,15.88
2022-09-21T03:57:25.533Z,15.58
2022-09-21T04:02:27.210Z,15.69
2022-09-21T04:07:34.424Z,15.66
2022-09-21T04:12:36.347Z,15.64
2022-09-21T04:17:37.855Z,15.64
2022-09-21T04:22:43.399Z,15.64
2022-09-21T04:27:45.246Z,15.66
2022-09-21T04:32:46.779Z,15.75
2022-09-21T04:37:48.265Z,15.82
2022-09-21T04:42:53.413Z,15.68
2022-09-21T04:47:54.887Z,15.62
2022-09-21T04:52:58.321Z,15.77
2022-09-21T04:57:59.799Z,15.68
2022-09-21T05:03:01.263Z,15.86
2022-09-21T05:08:02.736Z,15.86
2022-09-21T05:13:04.202Z,15.90
2022-09-21T05:18:06.022Z,15.80
2022-09-21T05:23:07.503Z,15.96
2022-09-21T05:28:09.114Z,15.68
2022-09-21T05:33:11.764Z,15.41
2022-09-21T05:38:13.811Z,15.82
2022-09-21T05:43:15.411Z,15.69
2022-09-21T05:48:18.943Z,15.99
2022-09-21T05:53:57.815Z,16.01
2022-09-21T05:59:03.077Z,16.02
2022-09-21T06:04:04.753Z,16.21
2022-09-21T06:09:06.248Z,16.29
2022-09-21T06:14:07.731Z,16.28
2022-09-21T06:19:12.579Z,16.40
2022-09-21T06:24:14.071Z,16.60
2022-09-21T06:29:15.569Z,16.85
2022-09-21T06:34:17.479Z,17.15
2022-09-21T06:39:18.942Z,17.37
2022-09-21T06:44:20.421Z,17.52
2022-09-21T06:49:21.898Z,17.67
2022-09-21T06:54:24.554Z,17.75
2022-09-21T06:59:26.024Z,17.78
2022-09-21T07:04:29.129Z,18.02
2022-09-21T07:14:52.443Z,18.43
2022-09-21T07:19:53.912Z,18.60
2022-09-21T07:24:55.491Z,18.40
2022-09-21T07:29:56.995Z,18.80
2022-09-21T07:34:58.480Z,18.93
2022-09-21T07:40:02.749Z,19.15
2022-09-21T07:45:05.012Z,19.18
2022-09-21T07:50:06.729Z,19.32
2022-09-21T07:55:08.447Z,19.48
2022-09-21T08:00:10.589Z,19.54
2022-09-21T08:05:12.100Z,19.73
2022-09-21T08:10:13.592Z,19.95
2022-09-21T08:15:37.103Z,20.29
2022-09-21T08:20:36.642Z,20.35
2022-09-21T08:25:38.124Z,20.53
2022-09-21T08:30:39.595Z,20.93
2022-09-21T08:35:41.079Z,21.14
2022-09-21T08:40:42.660Z,21.28
2022-09-21T08:45:44.853Z,21.17
2022-09-21T08:50:46.700Z,21.46
2022-09-21T08:55:48.192Z,21.59
2022-09-21T09:01:14.387Z,21.19
2022-09-21T09:06:26.744Z,21.78
2022-09-21T09:11:44.184Z,21.96
2022-09-21T09:16:54.299Z,22.06
2022-09-21T09:21:56.223Z,22.13
2022-09-21T09:27:02.226Z,22.24
2022-09-21T09:32:03.762Z,22.39
2022-09-21T09:37:13.062Z,22.37
2022-09-21T09:42:25.148Z,22.32
2022-09-21T09:47:44.924Z,22.35
2022-09-21T09:52:46.692Z,22.12
2022-09-21T09:57:48.197Z,22.44
2022-09-21T10:02:51.403Z,22.49
2022-09-21T10:07:53.183Z,22.47
2022-09-21T10:12:55.362Z,22.66
2022-09-21T10:18:07.737Z,22.79
2022-09-21T10:23:09.864Z,22.90
2022-09-21T10:28:12.051Z,23.10
2022-09-21T10:33:20.271Z,22.95
2022-09-21T10:38:27.420Z,23.05
2022-09-21T10:43:39.878Z,23.12
2022-09-21T10:48:47.539Z,23.46
2022-09-21T10:53:53.883Z,23.50
2022-09-21T10:59:24.811Z,23.50
2022-09-21T11:04:41.201Z,23.62
2022-09-21T11:09:56.912Z,23.70
2022-09-21T11:15:20.020Z,24.11
2022-09-21T11:20:42.585Z,24.13
2022-09-21T11:25:49.639Z,24.28
2022-09-21T11:31:05.143Z,24.38
2022-09-21T11:36:53.052Z,24.14
2022-09-21T11:42:27.162Z,24.64
2022-09-21T11:47:50.227Z,24.66
2022-09-21T11:53:17.448Z,24.28
2022-09-21T11:58:23.284Z,24.47
2022-09-21T12:03:30.837Z,23.96
2022-09-21T12:08:48.693Z,24.30
2022-09-21T12:14:08.027Z,24.45
2022-09-21T12:19:40.299Z,24.68
2022-09-21T12:24:47.942Z,24.59
2022-09-21T12:29:53.219Z,24.70
2022-09-21T12:35:00.612Z,24.26
2022-09-21T12:40:17.976Z,24.54
2022-09-21T12:45:40.471Z,24.45
2022-09-21T12:50:48.303Z,24.69
2022-09-21T12:56:09.640Z,24.65
2022-09-21T13:01:41.955Z,24.06
2022-09-21T13:07:14.607Z,23.69
2022-09-21T13:12:19.011Z,23.70
2022-09-21T13:17:25.110Z,24.13
2022-09-21T13:22:27.325Z,24.37
2022-09-21T13:28:00.560Z,23.63
2022-09-21T13:33:03.691Z,23.79
2022-09-21T13:38:44.231Z,23.41
2022-09-21T13:43:50.443Z,23.57
2022-09-21T13:48:53.154Z,22.92
2022-09-21T13:53:56.660Z,22.75
2022-09-21T13:58:58.149Z,23.18
2022-09-21T14:04:21.088Z,23.34
2022-09-21T14:09:28.551Z,23.61
2022-09-21T14:14:37.326Z,23.22
2022-09-21T14:19:38.647Z,23.13
2022-09-21T14:24:44.815Z,22.51
2022-09-21T14:29:53.007Z,22.98
2022-09-21T14:34:57.102Z,23.20
2022-09-21T14:39:59.037Z,22.90
2022-09-21T14:45:02.075Z,23.09
2022-09-21T14:50:45.538Z,22.87
2022-09-21T14:56:22.390Z,22.68
2022-09-21T15:01:33.912Z,22.74
2022-09-21T15:07:00.404Z,22.81
2022-09-21T15:12:09.361Z,22.08
2022-09-21T15:17:28.700Z,22.35
2022-09-21T15:22:31.854Z,22.45
2022-09-21T15:27:33.729Z,22.41
2022-09-21T15:32:36.277Z,22.12
2022-09-21T15:37:39.544Z,22.26
2022-09-21T15:43:00.850Z,22.15
2022-09-21T15:48:02.200Z,22.14
2022-09-21T15:53:05.640Z,22.16
2022-09-21T15:58:20.747Z,22.05
2022-09-21T16:03:23.235Z,21.97
2022-09-21T16:08:30.134Z,21.99
2022-09-21T16:13:50.718Z,21.84
2022-09-21T16:18:55.125Z,21.66
2022-09-21T16:23:57.328Z,21.67
2022-09-21T16:29:17.768Z,21.62
2022-09-21T16:34:21.744Z,21.50
2022-09-21T16:39:23.779Z,20.97
2022-09-21T16:44:25.773Z,20.96
2022-09-21T16:49:33.574Z,20.88
2022-09-21T16:54:37.430Z,20.75
2022-09-21T16:59:38.923Z,20.59
2022-09-21T17:04:40.435Z,20.52
2022-09-21T17:09:47.645Z,20.69
2022-09-21T17:14:51.547Z,20.52
2022-09-21T17:19:53.682Z,20.18
2022-09-21T17:24:55.158Z,20.30
2022-09-21T17:29:57.029Z,20.26
2022-09-21T17:35:01.602Z,20.23
2022-09-21T17:40:09.878Z,20.17
2022-09-21T17:45:30.611Z,20.17
2022-09-21T17:50:32.235Z,20.25
2022-09-21T17:55:33.890Z,20.32
2022-09-21T18:01:00.715Z,20.23
2022-09-21T18:06:02.315Z,20.09
2022-09-21T18:11:19.022Z,20.40
2022-09-21T18:16:27.634Z,20.43
2022-09-21T18:21:29.130Z,20.21
2022-09-21T18:26:30.908Z,19.58
2022-09-21T18:31:43.757Z,19.34
2022-09-21T18:36:48.550Z,19.13
2022-09-21T18:42:05.879Z,19.15
2022-09-21T18:47:15.588Z,19.19
2022-09-21T18:52:38.938Z,18.72
2022-09-21T18:57:40.692Z,18.72
2022-09-21T19:02:58.952Z,18.64
2022-09-21T19:08:10.531Z,18.54
2022-09-21T19:13:27.316Z,18.32
2022-09-21T19:18:53.920Z,18.23
2022-09-21T19:24:19.883Z,18.02
2022-09-21T19:29:51.070Z,18.12
2022-09-21T19:34:52.672Z,18.01
2022-09-21T19:39:54.231Z,18.29
2022-09-21T19:45:15.930Z,18.31
2022-09-21T19:50:18.275Z,18.34
2022-09-21T19:55:39.424Z,18.20
2022-09-21T20:00:41.100Z,18.04
2022-09-21T20:06:05.675Z,17.89
2022-09-21T20:11:25.328Z,17.96
2022-09-21T20:16:40.567Z,17.89
2022-09-21T20:21:42.516Z,17.89
2022-09-21T20:26:44.073Z,17.79
2022-09-21T20:31:47.351Z,17.76
2022-09-21T20:36:48.821Z,17.81
2022-09-21T20:41:50.287Z,17.76
2022-09-21T20:46:51.759Z,17.83
2022-09-21T20:51:53.227Z,17.95
2022-09-21T20:56:54.701Z,17.88
2022-09-21T21:01:56.237Z,17.80
2022-09-21T21:06:57.735Z,17.43
2022-09-21T21:11:59.326Z,17.29
2022-09-21T21:17:02.349Z,17.43
2022-09-21T21:22:03.925Z,17.32
2022-09-21T21:27:05.898Z,17.29
2022-09-21T21:32:07.416Z,17.42
2022-09-21T21:37:09.546Z,17.56
2022-09-21T21:42:11.030Z,17.69
2022-09-21T21:47:38.097Z,17.33
2022-09-21T21:52:34.514Z,17.10
2022-09-21T21:57:35.984Z,16.99
2022-09-21T22:02:37.596Z,17.07
2022-09-21T22:07:39.959Z,16.98
2022-09-21T22:12:44.985Z,17.06
2022-09-21T22:17:46.577Z,16.91
2022-09-21T22:22:48.481Z,16.92
2022-09-21T22:27:49.948Z,16.92
2022-09-21T22:32:51.680Z,16.91
2022-09-21T22:37:54.503Z,16.83
2022-09-21T22:42:55.954Z,16.90
2022-09-21T22:47:57.437Z,16.84
2022-09-21T22:52:58.904Z,16.78
2022-09-21T22:58:00.587Z,16.79
2022-09-21T23:03:02.185Z,16.70
2022-09-21T23:08:03.745Z,16.61
2022-09-21T23:13:05.719Z,16.59
2022-09-21T23:18:07.193Z,16.47
2022-09-21T23:23:08.915Z,16.55
2022-09-21T23:28:10.464Z,16.63
2022-09-21T23:33:11.938Z,16.56
2022-09-21T23:38:13.475Z,16.69
2022-09-21T23:43:14.972Z,16.61
2022-09-21T23:48:16.442Z,16.52
2022-09-21T23:53:17.960Z,16.36
2022-09-21T23:58:19.641Z,16.60
